Sunday, June 26, 2016
11:49 UTC
  |  Log In   |  Register Free
Airport Search:

Oroville Municipal Airport
(KOVE)

Oroville Municipal Airport Diagram
No Airport Diagram Available

FAA data valid effective May 26 2016 - Jul 21 2016 (unless otherwise noted).

 
 
 
 
 
 
 
 
 
 
 
 
 
 
Current Aviation Weather for KOVE

Weather Summary


The most recent METAR observation for OVE was updated at: 12:53 UTC
METAR for KOVE is not available. Closest METAR is for KCIC
KOVE  (most recent observation was updatred at 26:10 UTC)
261053Z AUTO 00000KT 10SM CLR 22/11 A2990 RMK AO2 SLP123 T02170111 $

KCIC  (21.5 nm SE)   (most recent observation was updated at 26:11 UTC)
261135Z AUTO 00000KT 10SM CLR 22/04 A2992 RMK AO1

KBAB  (22.8 nm NW)   (most recent observation was updated at 26:10 UTC)
261058Z AUTO 26005KT 10SM CLR 18/10 A2987 RMK AO2 SLP117 T01790104 $

TAF for KOVE is not available.
KBAB  (22.8 nm NW)   (most recent observation was updatred at 26:03 UTC)
260308Z 2603/2709 VRB06KT 9999 FEW250 QNH2977INS TX37/2623Z TN16/2613Z


GlobalAir.com is loading additional information.
 Current Weather at OVE
78.0 F° (25.6 C°)

East winds at 8.1 mph
Pressure:
29.88 in
Humidity:
37%
Wind:
East at 8.1 mph
Dew Point:
50.0 F° (10.0 C°)
Visibility:
10.00 mi
OVE NOAA Radar




Find All Airport Services Find A Hotel Find A Rental Car Find A Golf Course Find A Restaurant $100 Hamburger



Airport Weather Forecast for KOVE

Translated METAR for KOVE (1053 UTC)
METAR:
KOVE 261053Z AUTO 00000KT 10SM CLR 22/11 A2990 RMK AO2 SLP123 T02170111 $
Conditions at:
KOVE (Oroville Muni, CA) observed 1053 UTC 26 June 2016
Temperature:
22°C (71.6°F)
Dewpoint:
11°C (51.8°F) [RH = 49.7]
Pressure:
29.9 inches Hg (1012.5 mb)
pressure at sea level is 123 in Hg
Winds:
from the N (000 degrees) at 0 mph (0 knots: 0 m/s)
Visibility:
10 mile(s)
Ceiling:
at least 12,000 feet AGL
Clouds:
Clear below 12,000 feet AGL
Remarks:
site is un-manned
SOME DATA ABOVE MAY BE INACCURATE!!!
"$" is an indication the sensor requires maintenance
site is automated and HAS a precipitation sensor

Translated TAF for KBAB (Beale Afb, CA) (0308 UTC)
TAF text:
KBAB 260308Z 2603/2709 VRB06KT 9999 FEW250 QNH2977INS TX37/2623Z TN16/2613Z
Forecast period:
Sunday Jun 26 2016 03:00 UTC - Monday Jun 27 2016 09:00 UTC
Forecast type:
FROM: standard forecast or significant change
Winds:
variable wind direction at 6.9 mph (6 knots: 3.1 m/s)
Visibility:
Ceiling:
at least 12,000 feet AGL
Clouds:
Few Clouds at 25,000 feet AGL
Weather:
no significant weather observed at this time
FBO's on the Field
FBO Company Facility Photos Services Transportation Aviation Fuel Prices: Prices include tax
Catering Weather Repair Courtesy Rental Type 100LL JetA JetA+ MOGAS 8087
 
Table Mountain Aviation

This FBO has not yet been rated
FS:Epic
Last Updated: Jun-11
Login to update fuel prices
SS:
Contact Table Mountain AviationMore FBO Information
 
Add another FBO Facility Photos Catering Weather Repair Courtesy Rental Type 100LL JetA JetA+ MOGAS 8087
Services Transportation Aviation Fuel Prices: Prices include tax


model-print
model-print
model-print
model-print